createdAt,value
2023-04-28T00:02:21.048Z,98.70
2023-04-28T00:04:45.988Z,99.90
2023-04-28T00:07:10.939Z,99.60
2023-04-28T00:09:35.418Z,99.90
2023-04-28T00:12:00.038Z,99.90
2023-04-28T00:14:24.517Z,99.90
2023-04-28T00:16:50.524Z,99.90
2023-04-28T00:19:14.959Z,99.90
2023-04-28T00:21:40.055Z,99.90
2023-04-28T00:24:04.889Z,99.90
2023-04-28T00:26:29.469Z,99.90
2023-04-28T00:28:53.949Z,99.90
2023-04-28T00:31:19.205Z,99.90
2023-04-28T00:33:45.644Z,99.90
2023-04-28T00:36:11.713Z,99.90
2023-04-28T00:38:36.241Z,99.90
2023-04-28T00:41:00.898Z,99.90
2023-04-28T00:43:25.736Z,99.90
2023-04-28T00:45:51.113Z,99.90
2023-04-28T00:48:15.722Z,99.90
2023-04-28T00:50:41.758Z,99.90
2023-04-28T00:53:06.688Z,99.90
2023-04-28T00:55:34.416Z,99.90
2023-04-28T00:57:59.402Z,99.90
2023-04-28T01:00:24.205Z,99.90
2023-04-28T01:02:49.011Z,99.90
2023-04-28T01:05:16.177Z,99.90
2023-04-28T01:07:42.192Z,99.90
2023-04-28T01:10:08.918Z,99.90
2023-04-28T01:12:34.000Z,99.90
2023-04-28T01:14:58.702Z,99.90
2023-04-28T01:17:23.942Z,99.90
2023-04-28T01:19:48.882Z,99.90
2023-04-28T01:22:15.445Z,99.90
2023-04-28T01:24:42.929Z,99.90
2023-04-28T01:27:09.042Z,99.90
2023-04-28T01:29:35.577Z,99.90
2023-04-28T01:32:00.118Z,99.90
2023-04-28T01:34:24.732Z,99.90
2023-04-28T01:36:49.360Z,99.90
2023-04-28T01:39:13.984Z,99.90
2023-04-28T01:41:41.504Z,99.90
2023-04-28T01:44:07.844Z,99.90
2023-04-28T01:46:32.561Z,99.90
2023-04-28T01:48:57.241Z,99.90
2023-04-28T01:51:22.371Z,99.90
2023-04-28T01:53:47.105Z,99.90
2023-04-28T01:56:11.767Z,99.90
2023-04-28T01:58:38.373Z,99.90
2023-04-28T02:01:04.909Z,99.90
2023-04-28T02:03:29.687Z,99.90
2023-04-28T02:05:56.008Z,99.90
2023-04-28T02:08:20.641Z,99.90
2023-04-28T02:10:46.034Z,99.90
2023-04-28T02:13:10.761Z,99.90
2023-04-28T02:15:41.530Z,99.90
2023-04-28T02:18:06.534Z,99.90
2023-04-28T02:20:33.547Z,99.90
2023-04-28T02:22:58.186Z,99.90
2023-04-28T02:25:23.550Z,99.90
2023-04-28T02:27:48.476Z,99.90
2023-04-28T02:30:13.722Z,99.90
2023-04-28T02:32:39.849Z,99.90
2023-04-28T02:35:04.355Z,99.90
2023-04-28T02:37:29.296Z,99.90
2023-04-28T02:39:54.015Z,99.90
2023-04-28T02:42:21.020Z,99.90
2023-04-28T02:44:45.948Z,99.90
2023-04-28T02:47:11.151Z,99.90
2023-04-28T02:49:37.083Z,99.90
2023-04-28T02:52:02.171Z,99.90
2023-04-28T02:54:28.610Z,99.90
2023-04-28T02:56:54.651Z,99.90
2023-04-28T02:59:40.490Z,99.90
2023-04-28T03:02:05.251Z,99.90
2023-04-28T03:04:29.855Z,99.90
2023-04-28T03:06:56.126Z,99.90
2023-04-28T03:09:20.996Z,99.90
2023-04-28T03:11:45.741Z,99.90
2023-04-28T03:14:10.246Z,99.90
2023-04-28T03:16:35.478Z,99.90
2023-04-28T03:19:00.085Z,99.90
2023-04-28T03:21:26.674Z,99.90
2023-04-28T03:23:52.845Z,99.90
2023-04-28T03:26:17.666Z,99.90
2023-04-28T03:28:42.187Z,99.90
2023-04-28T03:31:07.748Z,99.90
2023-04-28T03:33:32.675Z,99.90
2023-04-28T03:35:57.885Z,99.90
2023-04-28T03:38:22.749Z,99.60
2023-04-28T03:40:48.759Z,99.10
2023-04-28T03:43:31.179Z,98.50
2023-04-28T03:46:09.628Z,97.80
2023-04-28T03:48:34.446Z,97.50
2023-04-28T03:50:59.165Z,98.00
2023-04-28T03:53:23.732Z,97.50
2023-04-28T03:55:50.149Z,97.10
2023-04-28T03:58:16.460Z,96.40
2023-04-28T04:00:41.141Z,96.50
2023-04-28T04:03:06.069Z,96.70
2023-04-28T04:05:30.921Z,96.80
2023-04-28T04:07:55.554Z,96.70
2023-04-28T04:10:20.300Z,95.70
2023-04-28T04:12:47.295Z,95.40
2023-04-28T04:15:12.162Z,95.00
2023-04-28T04:17:37.735Z,94.70
2023-04-28T04:20:02.404Z,94.60
2023-04-28T04:22:28.589Z,94.60
2023-04-28T04:24:53.236Z,93.90
2023-04-28T04:27:17.839Z,93.80
2023-04-28T04:29:43.781Z,92.60
2023-04-28T04:32:13.149Z,93.40
2023-04-28T04:34:39.315Z,93.30
2023-04-28T04:37:03.797Z,92.90
2023-04-28T04:39:29.038Z,93.40
2023-04-28T04:41:53.648Z,93.50
2023-04-28T04:44:41.356Z,93.20
2023-04-28T04:47:12.811Z,93.40
2023-04-28T04:49:38.238Z,93.10
2023-04-28T04:52:03.089Z,93.70
2023-04-28T04:54:28.338Z,93.80
2023-04-28T04:56:53.270Z,92.70
2023-04-28T04:59:31.305Z,93.10
2023-04-28T05:02:02.453Z,93.30
2023-04-28T05:04:28.498Z,93.30
2023-04-28T05:06:55.434Z,93.00
2023-04-28T05:09:19.941Z,92.80
2023-04-28T05:11:44.430Z,93.00
2023-04-28T05:14:09.001Z,92.80
2023-04-28T05:16:33.709Z,92.80
2023-04-28T05:19:11.550Z,92.80
2023-04-28T05:21:37.397Z,91.90
2023-04-28T05:24:01.997Z,91.60
2023-04-28T05:26:27.622Z,91.40
2023-04-28T05:28:56.138Z,91.00
2023-04-28T05:31:20.846Z,90.10
2023-04-28T05:33:45.534Z,88.50
2023-04-28T05:36:11.025Z,86.60
2023-04-28T05:38:37.111Z,86.50
2023-04-28T05:41:03.642Z,84.80
2023-04-28T05:43:28.261Z,83.50
2023-04-28T05:45:53.061Z,83.40
2023-04-28T05:48:17.773Z,84.40
2023-04-28T05:50:42.495Z,83.20
2023-04-28T05:53:09.118Z,81.00
2023-04-28T05:55:36.507Z,80.00
2023-04-28T05:58:01.625Z,77.50
2023-04-28T06:00:26.610Z,77.70
2023-04-28T06:02:53.724Z,77.20
2023-04-28T06:05:20.023Z,80.30
2023-04-28T06:07:50.088Z,90.40
2023-04-28T06:10:15.082Z,80.70
2023-04-28T06:12:41.284Z,77.50
2023-04-28T06:15:07.311Z,81.30
2023-04-28T06:17:33.332Z,74.30
2023-04-28T06:19:59.236Z,76.80
2023-04-28T06:22:23.983Z,78.20
2023-04-28T06:24:50.450Z,76.60
2023-04-28T06:27:21.668Z,72.70
2023-04-28T06:29:48.845Z,74.20
2023-04-28T06:32:13.454Z,72.00
2023-04-28T06:34:39.096Z,70.20
2023-04-28T06:37:04.431Z,62.20
2023-04-28T06:39:29.142Z,66.10
2023-04-28T06:41:53.777Z,66.50
2023-04-28T06:44:20.489Z,69.80
2023-04-28T06:46:46.531Z,70.80
2023-04-28T06:49:11.257Z,62.70
2023-04-28T06:51:35.742Z,66.30
2023-04-28T06:54:03.342Z,62.30
2023-04-28T06:56:28.213Z,65.10
2023-04-28T06:58:58.750Z,58.10
2023-04-28T07:01:26.200Z,56.40
2023-04-28T07:03:52.477Z,59.70
2023-04-28T07:06:20.474Z,60.60
2023-04-28T07:08:45.559Z,58.10
2023-04-28T07:11:10.458Z,59.60
2023-04-28T07:13:35.167Z,63.90
2023-04-28T07:16:00.067Z,58.80
2023-04-28T07:18:24.808Z,57.80
2023-04-28T07:20:50.970Z,60.60
2023-04-28T07:23:15.554Z,61.80
2023-04-28T07:25:41.452Z,59.40
2023-04-28T07:28:07.240Z,57.30
2023-04-28T07:30:32.048Z,57.10
2023-04-28T07:32:56.736Z,57.60
2023-04-28T07:35:21.437Z,60.30
2023-04-28T07:37:47.427Z,62.00
2023-04-28T07:40:12.796Z,61.40
2023-04-28T07:42:37.481Z,60.60
2023-04-28T07:45:02.051Z,61.70
2023-04-28T07:47:29.306Z,60.30
2023-04-28T07:49:53.953Z,61.40
2023-04-28T07:52:18.499Z,62.60
2023-04-28T07:54:44.474Z,61.90
2023-04-28T07:57:10.302Z,63.50
2023-04-28T07:59:35.750Z,61.30
2023-04-28T08:02:00.283Z,59.90
2023-04-28T08:04:25.044Z,62.00
2023-04-28T08:06:50.190Z,61.90
2023-04-28T08:09:14.762Z,64.90
2023-04-28T08:11:40.688Z,66.70
2023-04-28T08:14:06.042Z,67.40
2023-04-28T08:16:31.275Z,67.50
2023-04-28T08:18:56.144Z,68.30
2023-04-28T08:21:21.329Z,68.30
2023-04-28T08:23:46.801Z,66.60
2023-04-28T08:26:11.217Z,64.50
2023-04-28T08:28:37.358Z,62.80
2023-04-28T08:31:02.053Z,62.20
2023-04-28T08:33:26.603Z,61.10
2023-04-28T08:35:51.312Z,61.80
2023-04-28T08:38:18.157Z,60.60
2023-04-28T08:40:42.976Z,61.00
2023-04-28T08:43:10.219Z,62.10
2023-04-28T08:45:43.408Z,58.90
2023-04-28T08:48:18.763Z,59.90
2023-04-28T08:50:45.404Z,60.90
2023-04-28T08:53:11.345Z,60.50
2023-04-28T08:55:39.916Z,61.80
2023-04-28T08:58:13.712Z,61.80
2023-04-28T09:00:40.122Z,62.90
2023-04-28T09:03:05.631Z,63.10
2023-04-28T09:05:30.249Z,64.00
2023-04-28T09:07:55.771Z,62.50
2023-04-28T09:10:22.126Z,64.80
2023-04-28T09:12:47.069Z,64.10
2023-04-28T09:15:12.067Z,64.80
2023-04-28T09:17:50.223Z,66.00
2023-04-28T09:20:21.790Z,66.30
2023-04-28T09:22:46.490Z,66.40
2023-04-28T09:25:13.474Z,65.10
2023-04-28T09:27:40.365Z,63.90
2023-04-28T09:30:05.267Z,62.10
2023-04-28T09:32:30.909Z,63.50
2023-04-28T09:34:57.853Z,64.40
2023-04-28T09:37:24.992Z,63.70
2023-04-28T09:39:50.858Z,64.10
2023-04-28T09:42:34.028Z,64.50
2023-04-28T09:44:59.173Z,64.10
2023-04-28T09:47:28.841Z,65.30
2023-04-28T09:50:01.459Z,65.10
2023-04-28T09:52:29.777Z,64.10
2023-04-28T09:54:56.576Z,64.90
2023-04-28T09:57:22.324Z,66.10
2023-04-28T09:59:49.764Z,65.90
2023-04-28T10:02:36.236Z,65.50
2023-04-28T10:05:03.850Z,63.50
2023-04-28T10:07:35.805Z,64.90
2023-04-28T10:10:00.406Z,67.10
2023-04-28T10:12:26.046Z,64.40
2023-04-28T10:14:54.575Z,64.70
2023-04-28T10:17:19.701Z,63.90
2023-04-28T10:19:45.917Z,62.90
2023-04-28T10:22:35.877Z,64.10
2023-04-28T10:25:12.970Z,65.10
2023-04-28T10:27:38.299Z,64.10
2023-04-28T10:30:26.731Z,63.80
2023-04-28T10:33:25.394Z,64.30
2023-04-28T10:35:50.584Z,62.40
2023-04-28T10:38:17.302Z,62.30
2023-04-28T10:40:43.332Z,61.70
2023-04-28T10:43:08.499Z,60.00
2023-04-28T10:46:12.762Z,61.50
2023-04-28T10:48:57.290Z,62.70
2023-04-28T10:51:32.042Z,62.40
2023-04-28T10:54:23.812Z,56.80
2023-04-28T10:57:25.345Z,59.80
2023-04-28T10:59:53.327Z,61.40
2023-04-28T11:02:43.917Z,60.10
2023-04-28T11:05:21.831Z,59.50
2023-04-28T11:08:34.614Z,57.90
2023-04-28T11:11:24.496Z,58.70
2023-04-28T11:13:50.768Z,58.10
2023-04-28T11:16:20.708Z,58.90
2023-04-28T11:19:07.672Z,58.50
2023-04-28T11:21:33.572Z,57.40
2023-04-28T11:23:59.140Z,58.90
2023-04-28T11:26:25.163Z,60.60
2023-04-28T11:28:51.398Z,58.30
2023-04-28T11:31:19.340Z,59.10
2023-04-28T11:33:46.420Z,58.10
2023-04-28T11:36:24.406Z,57.20
2023-04-28T11:38:49.371Z,56.80
2023-04-28T11:41:14.120Z,56.70
2023-04-28T11:43:47.056Z,56.20
2023-04-28T11:46:18.480Z,55.50
2023-04-28T11:48:43.124Z,56.40
2023-04-28T11:51:08.305Z,54.60
2023-04-28T11:53:53.753Z,56.10
2023-04-28T11:56:18.734Z,54.00
2023-04-28T11:58:44.599Z,53.00
2023-04-28T12:01:10.031Z,54.90
2023-04-28T12:03:34.873Z,56.70
2023-04-28T12:06:00.254Z,55.90
2023-04-28T12:08:29.934Z,54.70
2023-04-28T12:11:09.881Z,54.50
2023-04-28T12:13:34.192Z,53.50
2023-04-28T12:16:03.660Z,55.10
2023-04-28T12:18:28.077Z,56.30
2023-04-28T12:20:52.601Z,55.80
2023-04-28T12:23:17.248Z,52.60
2023-04-28T12:25:48.443Z,53.70
2023-04-28T12:28:13.003Z,54.50
2023-04-28T12:30:41.941Z,53.20
2023-04-28T12:33:23.476Z,53.80
2023-04-28T12:35:49.162Z,53.90
2023-04-28T12:38:14.144Z,54.30
2023-04-28T12:40:38.648Z,55.60
2023-04-28T12:43:03.127Z,54.60
2023-04-28T12:45:30.276Z,55.20
2023-04-28T12:47:55.462Z,55.10
2023-04-28T12:50:21.579Z,55.00
2023-04-28T12:52:46.195Z,56.20
2023-04-28T12:55:11.558Z,56.10
2023-04-28T12:57:39.072Z,55.30
2023-04-28T13:00:04.374Z,55.60
2023-04-28T13:02:32.194Z,54.80
2023-04-28T13:04:57.098Z,53.80
2023-04-28T13:07:23.402Z,54.30
2023-04-28T13:09:48.314Z,56.50
2023-04-28T13:12:13.699Z,67.40
2023-04-28T13:14:38.357Z,63.70
2023-04-28T13:17:05.168Z,55.60
2023-04-28T13:19:34.594Z,54.10
2023-04-28T13:21:58.997Z,53.90
2023-04-28T13:24:24.861Z,53.20
2023-04-28T13:26:49.536Z,53.50
2023-04-28T13:29:14.503Z,53.00
2023-04-28T13:31:44.510Z,54.20
2023-04-28T13:34:16.279Z,52.30
2023-04-28T13:36:51.093Z,53.00
2023-04-28T13:39:16.064Z,53.90
2023-04-28T13:41:44.978Z,56.30
2023-04-28T13:44:09.657Z,55.70
2023-04-28T13:46:34.113Z,55.80
2023-04-28T13:48:58.818Z,56.70
2023-04-28T13:51:23.833Z,56.50
2023-04-28T13:53:48.443Z,56.00
2023-04-28T13:56:13.026Z,55.90
2023-04-28T13:58:39.773Z,54.50
2023-04-28T14:01:05.112Z,54.80
2023-04-28T14:03:30.247Z,55.00
2023-04-28T14:05:57.163Z,56.40
2023-04-28T14:08:22.481Z,55.80
2023-04-28T14:10:47.710Z,56.10
2023-04-28T14:13:12.389Z,55.90
2023-04-28T14:15:47.623Z,55.50
2023-04-28T14:18:19.741Z,55.00
2023-04-28T14:20:44.743Z,54.40
2023-04-28T14:23:09.433Z,55.80
2023-04-28T14:25:34.001Z,55.90
2023-04-28T14:27:58.712Z,55.60
2023-04-28T14:30:23.991Z,55.40
2023-04-28T14:32:50.041Z,56.40
2023-04-28T14:35:15.590Z,56.30
2023-04-28T14:37:40.576Z,57.70
2023-04-28T14:40:05.816Z,57.80
2023-04-28T14:42:33.010Z,58.20
2023-04-28T14:45:00.275Z,56.90
2023-04-28T14:47:25.110Z,56.00
2023-04-28T14:49:51.344Z,56.80
2023-04-28T14:52:15.997Z,56.60
2023-04-28T14:54:40.655Z,57.40
2023-04-28T14:57:05.343Z,57.50
2023-04-28T14:59:30.005Z,57.80
2023-04-28T15:01:54.492Z,58.40
2023-04-28T15:04:19.483Z,58.60
2023-04-28T15:06:45.691Z,59.40
2023-04-28T15:09:10.722Z,58.40
2023-04-28T15:11:35.162Z,60.10
2023-04-28T15:13:59.671Z,60.10
2023-04-28T15:16:24.398Z,59.70
2023-04-28T15:18:49.275Z,58.50
2023-04-28T15:21:13.872Z,58.80
2023-04-28T15:23:39.950Z,59.00
2023-04-28T15:26:04.997Z,59.40
2023-04-28T15:28:29.893Z,59.10
2023-04-28T15:30:54.512Z,64.30
2023-04-28T15:33:19.103Z,66.60
2023-04-28T15:35:48.534Z,61.60
2023-04-28T15:38:13.150Z,64.00
2023-04-28T15:40:40.543Z,64.20
2023-04-28T15:43:08.016Z,60.20
2023-04-28T15:45:35.793Z,61.00
2023-04-28T15:48:00.523Z,65.50
2023-04-28T15:50:29.750Z,66.30
2023-04-28T15:52:54.729Z,66.60
2023-04-28T15:55:20.972Z,62.50
2023-04-28T15:57:48.031Z,63.90
2023-04-28T16:00:14.924Z,63.30
2023-04-28T16:02:40.233Z,70.50
2023-04-28T16:05:05.271Z,62.00
2023-04-28T16:07:30.883Z,70.30
2023-04-28T16:09:55.402Z,67.90
2023-04-28T16:12:19.871Z,69.60
2023-04-28T16:14:45.664Z,66.80
2023-04-28T16:17:10.295Z,66.40
2023-04-28T16:19:34.714Z,67.80
2023-04-28T16:21:59.454Z,61.00
2023-04-28T16:24:24.083Z,67.50
2023-04-28T16:26:48.733Z,64.20
2023-04-28T16:29:14.407Z,68.00
2023-04-28T16:31:40.658Z,67.40
2023-04-28T16:34:05.154Z,64.40
2023-04-28T16:36:33.115Z,66.90
2023-04-28T16:38:57.950Z,66.70
2023-04-28T16:41:23.036Z,66.00
2023-04-28T16:43:47.412Z,65.80
2023-04-28T16:46:12.096Z,65.10
2023-04-28T16:48:38.151Z,66.20
2023-04-28T16:51:02.750Z,66.10
2023-04-28T16:53:27.537Z,66.00
2023-04-28T16:55:52.147Z,66.00
2023-04-28T16:58:16.626Z,65.70
2023-04-28T17:00:41.455Z,65.20
2023-04-28T17:03:06.484Z,65.90
2023-04-28T17:05:33.545Z,66.40
2023-04-28T17:07:58.628Z,65.50
2023-04-28T17:10:23.678Z,64.70
2023-04-28T17:12:48.343Z,65.40
2023-04-28T17:15:17.221Z,65.90
2023-04-28T17:17:41.810Z,66.20
2023-04-28T17:20:07.145Z,61.40
2023-04-28T17:22:33.356Z,63.10
2023-04-28T17:24:58.097Z,64.50
2023-04-28T17:27:25.665Z,66.50
2023-04-28T17:29:52.035Z,67.30
2023-04-28T17:32:16.689Z,68.20
2023-04-28T17:34:41.760Z,68.90
2023-04-28T17:37:06.986Z,69.70
2023-04-28T17:39:33.208Z,70.00
2023-04-28T17:41:58.208Z,70.50
2023-04-28T17:44:22.969Z,70.80
2023-04-28T17:46:47.802Z,71.40
2023-04-28T17:49:12.541Z,71.80
2023-04-28T17:51:38.196Z,72.10
2023-04-28T17:54:05.195Z,73.60
2023-04-28T17:56:33.271Z,73.30
2023-04-28T17:59:00.423Z,74.40
2023-04-28T18:01:25.489Z,75.10
2023-04-28T18:03:53.686Z,75.70
2023-04-28T18:06:22.325Z,76.10
2023-04-28T18:08:47.285Z,76.90
2023-04-28T18:11:12.738Z,78.20
2023-04-28T18:13:41.073Z,78.70
2023-04-28T18:16:10.731Z,79.50
2023-04-28T18:18:39.365Z,79.80
2023-04-28T18:21:04.339Z,79.90
2023-04-28T18:23:30.446Z,80.70
2023-04-28T18:25:55.565Z,80.90
2023-04-28T18:28:20.032Z,81.60
2023-04-28T18:30:44.977Z,82.20
2023-04-28T18:33:10.415Z,82.80
2023-04-28T18:35:35.506Z,82.10
2023-04-28T18:38:01.091Z,82.40
2023-04-28T18:40:26.249Z,82.10
2023-04-28T18:42:50.737Z,81.90
2023-04-28T18:45:15.375Z,80.90
2023-04-28T18:47:53.258Z,82.40
2023-04-28T18:50:18.853Z,80.90
2023-04-28T18:52:44.602Z,81.20
2023-04-28T18:55:09.552Z,81.20
2023-04-28T18:57:34.563Z,81.00
2023-04-28T19:00:01.763Z,80.50
2023-04-28T19:02:30.385Z,80.60
2023-04-28T19:04:57.301Z,80.70
2023-04-28T19:07:22.139Z,80.60
2023-04-28T19:09:47.406Z,81.20
2023-04-28T19:12:12.116Z,80.90
2023-04-28T19:14:37.829Z,81.30
2023-04-28T19:17:05.446Z,80.50
2023-04-28T19:19:31.906Z,80.40
2023-04-28T19:21:58.081Z,80.60
2023-04-28T19:24:23.796Z,80.70
2023-04-28T19:26:49.320Z,78.40
2023-04-28T19:29:17.408Z,77.30
2023-04-28T19:31:42.232Z,77.20
2023-04-28T19:34:09.578Z,77.30
2023-04-28T19:36:34.532Z,78.00
2023-04-28T19:39:00.770Z,80.40
2023-04-28T19:41:25.434Z,80.80
2023-04-28T19:43:50.169Z,80.70
2023-04-28T19:46:15.282Z,80.30
2023-04-28T19:48:40.977Z,80.10
2023-04-28T19:51:05.626Z,81.30
2023-04-28T19:53:30.698Z,80.60
2023-04-28T19:55:57.696Z,83.90
2023-04-28T19:58:23.095Z,84.10
2023-04-28T20:00:48.141Z,85.50
2023-04-28T20:03:13.405Z,84.80
2023-04-28T20:05:39.216Z,85.10
2023-04-28T20:08:03.714Z,79.20
2023-04-28T20:10:28.408Z,80.30
2023-04-28T20:12:58.025Z,83.90
2023-04-28T20:15:22.721Z,80.90
2023-04-28T20:17:47.672Z,80.00
2023-04-28T20:20:12.900Z,79.60
2023-04-28T20:22:37.452Z,79.70
2023-04-28T20:25:05.904Z,80.90
2023-04-28T20:27:30.583Z,79.90
2023-04-28T20:29:56.645Z,80.50
2023-04-28T20:32:21.452Z,81.40
2023-04-28T20:34:46.148Z,81.20
2023-04-28T20:37:11.257Z,81.80
2023-04-28T20:39:35.832Z,81.00
2023-04-28T20:42:00.854Z,81.70
2023-04-28T20:44:29.729Z,81.20
2023-04-28T20:46:55.753Z,82.00
2023-04-28T20:49:20.328Z,82.60
2023-04-28T20:51:45.438Z,83.00
2023-04-28T20:54:10.534Z,82.10
2023-04-28T20:56:35.132Z,82.10
2023-04-28T20:58:59.985Z,82.30
2023-04-28T21:01:24.767Z,82.60
2023-04-28T21:03:50.975Z,83.20
2023-04-28T21:06:15.694Z,83.20
2023-04-28T21:08:41.868Z,83.80
2023-04-28T21:11:12.007Z,84.00
2023-04-28T21:13:36.885Z,84.20
2023-04-28T21:16:02.715Z,83.80
2023-04-28T21:18:27.257Z,83.80
2023-04-28T21:20:54.758Z,84.30
2023-04-28T21:23:19.796Z,84.30
2023-04-28T21:25:44.856Z,84.60
2023-04-28T21:28:09.362Z,83.60
2023-04-28T21:30:33.846Z,83.60
2023-04-28T21:32:58.526Z,83.30
2023-04-28T21:35:23.606Z,83.90
2023-04-28T21:37:49.619Z,83.40
2023-04-28T21:40:14.428Z,83.60
2023-04-28T21:42:40.083Z,84.80
2023-04-28T21:45:04.966Z,84.60
2023-04-28T21:47:30.410Z,85.00
2023-04-28T21:50:06.146Z,85.70
2023-04-28T21:53:09.225Z,86.40
2023-04-28T21:55:54.506Z,86.80
2023-04-28T21:58:19.832Z,87.40
2023-04-28T22:00:46.535Z,87.00
2023-04-28T22:03:12.361Z,87.70
2023-04-28T22:05:37.106Z,88.20
2023-04-28T22:08:04.202Z,87.70
2023-04-28T22:10:29.354Z,87.80
2023-04-28T22:12:54.447Z,88.30
2023-04-28T22:15:19.111Z,87.80
2023-04-28T22:17:43.711Z,87.30
2023-04-28T22:20:12.279Z,87.30
2023-04-28T22:22:36.960Z,87.10
2023-04-28T22:25:03.303Z,86.50
2023-04-28T22:27:30.457Z,86.20
2023-04-28T22:29:55.209Z,85.80
2023-04-28T22:32:19.884Z,86.60
2023-04-28T22:34:45.065Z,85.80
2023-04-28T22:37:10.366Z,85.60
2023-04-28T22:39:36.405Z,86.10
2023-04-28T22:42:03.708Z,85.80
2023-04-28T22:44:28.437Z,85.60
2023-04-28T22:46:53.304Z,84.90
2023-04-28T22:49:20.356Z,84.70
2023-04-28T22:51:44.822Z,84.50
2023-04-28T22:54:09.917Z,84.60
2023-04-28T22:56:34.622Z,84.90
2023-04-28T22:59:00.594Z,85.50
2023-04-28T23:01:25.282Z,85.60
2023-04-28T23:03:51.143Z,85.90
2023-04-28T23:06:16.046Z,85.80
2023-04-28T23:08:41.404Z,86.00
2023-04-28T23:11:07.686Z,84.90
2023-04-28T23:13:33.365Z,84.70
2023-04-28T23:16:01.266Z,85.80
2023-04-28T23:18:28.660Z,86.00
2023-04-28T23:20:54.026Z,85.90
2023-04-28T23:23:18.562Z,84.60
2023-04-28T23:25:43.936Z,84.00
2023-04-28T23:28:09.710Z,83.90
2023-04-28T23:30:34.184Z,84.70
2023-04-28T23:33:00.382Z,86.30
2023-04-28T23:35:24.986Z,84.00
2023-04-28T23:37:49.477Z,84.00
2023-04-28T23:40:16.935Z,84.20
2023-04-28T23:42:41.555Z,83.80
2023-04-28T23:45:06.945Z,86.30
2023-04-28T23:47:31.537Z,86.10
2023-04-28T23:49:57.706Z,84.30
2023-04-28T23:52:22.471Z,83.50
2023-04-28T23:54:47.290Z,83.70
2023-04-28T23:57:12.378Z,84.10
2023-04-28T23:59:37.039Z,83.50
